sensor_id;sensor_type;location;lat;lon;timestamp;pressure;altitude;pressure_sealevel;temperature;humidity
70921;BME280;58572;48.110;19.838;2023-02-12T00:00:50;98881.44;;;1.09;77.67
70921;BME280;58572;48.110;19.838;2023-02-12T00:03:17;98872.44;;;1.78;71.84
70921;BME280;58572;48.110;19.838;2023-02-12T00:05:44;98881.06;;;1.67;71.28
70921;BME280;58572;48.110;19.838;2023-02-12T00:08:13;98834.38;;;1.35;72.96
70921;BME280;58572;48.110;19.838;2023-02-12T00:10:41;98890.06;;;1.52;73.90
70921;BME280;58572;48.110;19.838;2023-02-12T00:13:08;98880.50;;;1.98;70.04
70921;BME280;58572;48.110;19.838;2023-02-12T00:15:37;98889.28;;;1.65;70.81
70921;BME280;58572;48.110;19.838;2023-02-12T00:18:05;98889.56;;;1.83;69.67
70921;BME280;58572;48.110;19.838;2023-02-12T00:20:33;98897.41;;;0.96;72.36
70921;BME280;58572;48.110;19.838;2023-02-12T00:23:00;98904.72;;;0.81;75.66
70921;BME280;58572;48.110;19.838;2023-02-12T00:25:28;98907.22;;;0.54;78.40
70921;BME280;58572;48.110;19.838;2023-02-12T00:27:56;98902.56;;;0.98;77.21
70921;BME280;58572;48.110;19.838;2023-02-12T00:30:23;98892.81;;;1.18;76.92
70921;BME280;58572;48.110;19.838;2023-02-12T00:32:50;98903.00;;;1.01;78.03
70921;BME280;58572;48.110;19.838;2023-02-12T00:35:17;98903.66;;;1.44;75.91
70921;BME280;58572;48.110;19.838;2023-02-12T00:37:44;98907.19;;;1.10;74.51
70921;BME280;58572;48.110;19.838;2023-02-12T00:40:12;98906.22;;;1.72;71.39
70921;BME280;58572;48.110;19.838;2023-02-12T00:42:40;98896.91;;;1.14;72.63
70921;BME280;58572;48.110;19.838;2023-02-12T00:45:08;98899.69;;;0.99;74.77
70921;BME280;58572;48.110;19.838;2023-02-12T00:47:35;98905.88;;;0.44;76.82
70921;BME280;58572;48.110;19.838;2023-02-12T00:50:02;98904.34;;;1.18;72.72
70921;BME280;58572;48.110;19.838;2023-02-12T00:52:30;98904.47;;;0.76;73.77
70921;BME280;58572;48.110;19.838;2023-02-12T00:54:57;98899.59;;;0.86;73.81
70921;BME280;58572;48.110;19.838;2023-02-12T00:57:24;98831.00;;;0.44;72.59
70921;BME280;58572;48.110;19.838;2023-02-12T00:59:52;98869.44;;;0.15;73.16
70921;BME280;58572;48.110;19.838;2023-02-12T01:02:19;98904.84;;;1.01;71.72
70921;BME280;58572;48.110;19.838;2023-02-12T01:04:46;98901.13;;;1.30;70.30
70921;BME280;58572;48.110;19.838;2023-02-12T01:07:14;98910.16;;;1.22;69.58
70921;BME280;58572;48.110;19.838;2023-02-12T01:09:41;98911.28;;;1.06;70.30
70921;BME280;58572;48.110;19.838;2023-02-12T01:12:08;98922.69;;;0.87;71.04
70921;BME280;58572;48.110;19.838;2023-02-12T01:14:36;98923.81;;;0.22;72.97
70921;BME280;58572;48.110;19.838;2023-02-12T01:17:06;98923.84;;;-0.65;77.15
70921;BME280;58572;48.110;19.838;2023-02-12T01:19:34;98920.72;;;-0.18;75.02
70921;BME280;58572;48.110;19.838;2023-02-12T01:22:01;98918.00;;;0.68;71.21
70921;BME280;58572;48.110;19.838;2023-02-12T01:24:28;98895.28;;;0.08;72.89
70921;BME280;58572;48.110;19.838;2023-02-12T01:26:55;98906.00;;;0.57;72.17
70921;BME280;58572;48.110;19.838;2023-02-12T01:29:22;98921.22;;;0.56;71.44
70921;BME280;58572;48.110;19.838;2023-02-12T01:31:49;98932.03;;;0.20;72.40
70921;BME280;58572;48.110;19.838;2023-02-12T01:34:18;98920.06;;;-0.20;74.00
70921;BME280;58572;48.110;19.838;2023-02-12T01:36:45;98928.94;;;0.45;72.45
70921;BME280;58572;48.110;19.838;2023-02-12T01:39:13;98926.38;;;-0.06;74.06
70921;BME280;58572;48.110;19.838;2023-02-12T01:41:41;98932.59;;;-0.71;78.21
70921;BME280;58572;48.110;19.838;2023-02-12T01:44:12;98933.97;;;-0.60;77.48
70921;BME280;58572;48.110;19.838;2023-02-12T01:46:40;98932.84;;;-0.51;78.70
70921;BME280;58572;48.110;19.838;2023-02-12T01:49:10;98926.66;;;-0.37;76.90
70921;BME280;58572;48.110;19.838;2023-02-12T01:51:40;98926.81;;;-0.75;79.89
70921;BME280;58572;48.110;19.838;2023-02-12T01:54:11;98937.50;;;-0.75;79.08
70921;BME280;58572;48.110;19.838;2023-02-12T01:56:39;98932.03;;;-0.52;78.85
70921;BME280;58572;48.110;19.838;2023-02-12T01:59:08;98917.50;;;-0.28;78.11
70921;BME280;58572;48.110;19.838;2023-02-12T02:01:36;98929.06;;;0.58;72.51
70921;BME280;58572;48.110;19.838;2023-02-12T02:04:07;98934.78;;;0.55;71.35
70921;BME280;58572;48.110;19.838;2023-02-12T02:06:43;98862.22;;;-0.49;73.65
70921;BME280;58572;48.110;19.838;2023-02-12T02:09:12;98935.03;;;-0.40;75.60
70921;BME280;58572;48.110;19.838;2023-02-12T02:11:39;98932.19;;;0.40;72.11
70921;BME280;58572;48.110;19.838;2023-02-12T02:14:24;98932.13;;;0.83;70.25
70921;BME280;58572;48.110;19.838;2023-02-12T02:17:23;98928.78;;;0.25;71.00
70921;BME280;58572;48.110;19.838;2023-02-12T02:23:07;98941.00;;;0.13;72.53
70921;BME280;58572;48.110;19.838;2023-02-12T02:25:52;98937.59;;;0.47;70.23
70921;BME280;58572;48.110;19.838;2023-02-12T02:28:37;98924.38;;;0.67;69.06
70921;BME280;58572;48.110;19.838;2023-02-12T02:31:16;98926.19;;;0.59;69.26
70921;BME280;58572;48.110;19.838;2023-02-12T02:33:47;98938.94;;;0.57;69.01
70921;BME280;58572;48.110;19.838;2023-02-12T02:36:24;98935.75;;;0.47;69.57
70921;BME280;58572;48.110;19.838;2023-02-12T02:38:59;98946.34;;;0.13;70.64
70921;BME280;58572;48.110;19.838;2023-02-12T02:41:32;98942.34;;;-0.13;71.33
70921;BME280;58572;48.110;19.838;2023-02-12T02:44:06;98953.53;;;-0.24;71.71
70921;BME280;58572;48.110;19.838;2023-02-12T02:46:40;98948.56;;;-1.30;77.84
70921;BME280;58572;48.110;19.838;2023-02-12T02:49:18;98948.22;;;-0.03;71.90
70921;BME280;58572;48.110;19.838;2023-02-12T02:51:51;98949.34;;;-0.62;72.35
70921;BME280;58572;48.110;19.838;2023-02-12T02:54:25;98954.09;;;-1.17;76.30
70921;BME280;58572;48.110;19.838;2023-02-12T02:56:57;98950.19;;;-0.77;75.45
70921;BME280;58572;48.110;19.838;2023-02-12T02:59:28;98960.09;;;-0.05;70.90
70921;BME280;58572;48.110;19.838;2023-02-12T03:02:02;98834.69;;;-0.49;69.78
70921;BME280;58572;48.110;19.838;2023-02-12T03:04:35;98965.88;;;-1.11;75.35
70921;BME280;58572;48.110;19.838;2023-02-12T03:07:09;98960.78;;;-0.98;74.52
70921;BME280;58572;48.110;19.838;2023-02-12T03:09:39;98963.88;;;-0.50;73.55
70921;BME280;58572;48.110;19.838;2023-02-12T03:12:10;98971.94;;;-1.17;75.85
70921;BME280;58572;48.110;19.838;2023-02-12T03:14:44;98963.53;;;0.04;71.09
70921;BME280;58572;48.110;19.838;2023-02-12T03:17:15;98968.75;;;0.12;69.05
70921;BME280;58572;48.110;19.838;2023-02-12T03:19:46;98961.75;;;-0.04;69.82
70921;BME280;58572;48.110;19.838;2023-02-12T03:22:20;98977.91;;;0.67;67.84
70921;BME280;58572;48.110;19.838;2023-02-12T03:24:50;98973.56;;;0.02;69.26
70921;BME280;58572;48.110;19.838;2023-02-12T03:27:21;98976.66;;;0.20;68.88
70921;BME280;58572;48.110;19.838;2023-02-12T03:29:53;98857.97;;;0.21;66.35
70921;BME280;58572;48.110;19.838;2023-02-12T03:32:28;98982.47;;;-0.42;71.10
70921;BME280;58572;48.110;19.838;2023-02-12T03:35:07;98985.44;;;-0.52;72.10
70921;BME280;58572;48.110;19.838;2023-02-12T03:37:39;98991.66;;;-0.15;69.72
70921;BME280;58572;48.110;19.838;2023-02-12T03:40:14;98993.44;;;-0.37;71.25
70921;BME280;58572;48.110;19.838;2023-02-12T03:42:47;98997.28;;;0.47;68.63
70921;BME280;58572;48.110;19.838;2023-02-12T03:45:27;99001.59;;;0.06;69.18
70921;BME280;58572;48.110;19.838;2023-02-12T03:48:02;99008.81;;;0.48;67.24
70921;BME280;58572;48.110;19.838;2023-02-12T03:50:38;99023.22;;;-1.07;74.29
70921;BME280;58572;48.110;19.838;2023-02-12T03:53:08;99027.53;;;0.26;68.83
70921;BME280;58572;48.110;19.838;2023-02-12T03:55:40;99037.09;;;-0.30;70.58
70921;BME280;58572;48.110;19.838;2023-02-12T03:58:10;98922.66;;;-1.07;71.94
70921;BME280;58572;48.110;19.838;2023-02-12T04:00:40;98994.75;;;-1.30;75.00
70921;BME280;58572;48.110;19.838;2023-02-12T04:03:08;99036.97;;;0.08;68.91
70921;BME280;58572;48.110;19.838;2023-02-12T04:05:35;98911.94;;;-0.48;68.96
70921;BME280;58572;48.110;19.838;2023-02-12T04:08:05;99052.94;;;-0.43;72.02
70921;BME280;58572;48.110;19.838;2023-02-12T04:10:37;99051.66;;;-0.47;71.81
70921;BME280;58572;48.110;19.838;2023-02-12T04:13:16;99052.75;;;-0.56;71.73
70921;BME280;58572;48.110;19.838;2023-02-12T04:15:59;99054.78;;;0.01;71.74
70921;BME280;58572;48.110;19.838;2023-02-12T04:18:37;99058.56;;;-0.38;72.13
70921;BME280;58572;48.110;19.838;2023-02-12T04:21:12;99065.22;;;-1.01;74.47
70921;BME280;58572;48.110;19.838;2023-02-12T04:23:47;99055.88;;;-0.09;70.25
70921;BME280;58572;48.110;19.838;2023-02-12T04:26:33;99062.63;;;-0.42;72.09
70921;BME280;58572;48.110;19.838;2023-02-12T04:29:13;99066.16;;;0.24;67.76
70921;BME280;58572;48.110;19.838;2023-02-12T04:31:47;99078.69;;;-0.80;73.94
70921;BME280;58572;48.110;19.838;2023-02-12T04:34:18;99072.44;;;0.16;69.04
70921;BME280;58572;48.110;19.838;2023-02-12T04:36:53;99060.78;;;-0.56;72.04
70921;BME280;58572;48.110;19.838;2023-02-12T04:39:25;99063.53;;;-0.50;72.88
70921;BME280;58572;48.110;19.838;2023-02-12T04:41:53;99042.41;;;-0.01;68.06
70921;BME280;58572;48.110;19.838;2023-02-12T04:44:25;99076.41;;;-1.06;75.88
70921;BME280;58572;48.110;19.838;2023-02-12T04:46:53;99076.22;;;0.22;68.33
70921;BME280;58572;48.110;19.838;2023-02-12T04:49:22;99078.16;;;-0.02;70.20
70921;BME280;58572;48.110;19.838;2023-02-12T04:51:50;99087.75;;;-0.66;72.20
70921;BME280;58572;48.110;19.838;2023-02-12T04:54:18;99096.63;;;-1.34;77.19
70921;BME280;58572;48.110;19.838;2023-02-12T04:56:46;99093.06;;;0.37;68.77
70921;BME280;58572;48.110;19.838;2023-02-12T04:59:14;99097.16;;;0.54;67.44
70921;BME280;58572;48.110;19.838;2023-02-12T05:01:41;99103.31;;;-0.55;70.12
70921;BME280;58572;48.110;19.838;2023-02-12T05:04:11;99103.53;;;-0.27;69.63
70921;BME280;58572;48.110;19.838;2023-02-12T05:06:40;99100.66;;;0.19;68.16
70921;BME280;58572;48.110;19.838;2023-02-12T05:09:09;99097.41;;;0.23;66.66
70921;BME280;58572;48.110;19.838;2023-02-12T05:11:38;99116.00;;;-1.40;74.98
70921;BME280;58572;48.110;19.838;2023-02-12T05:14:05;99106.09;;;-1.09;75.18
70921;BME280;58572;48.110;19.838;2023-02-12T05:16:32;99108.53;;;-0.76;74.01
70921;BME280;58572;48.110;19.838;2023-02-12T05:18:59;99112.81;;;-0.52;72.32
70921;BME280;58572;48.110;19.838;2023-02-12T05:21:26;99119.44;;;-0.48;72.57
70921;BME280;58572;48.110;19.838;2023-02-12T05:23:55;99106.56;;;0.14;67.96
70921;BME280;58572;48.110;19.838;2023-02-12T05:26:22;99071.34;;;-0.78;69.53
70921;BME280;58572;48.110;19.838;2023-02-12T05:28:49;99132.06;;;-1.25;72.55
70921;BME280;58572;48.110;19.838;2023-02-12T05:31:17;99132.22;;;-0.58;71.02
70921;BME280;58572;48.110;19.838;2023-02-12T05:33:45;99139.69;;;-0.91;74.33
70921;BME280;58572;48.110;19.838;2023-02-12T05:36:14;99129.00;;;-1.14;76.48
70921;BME280;58572;48.110;19.838;2023-02-12T05:38:42;99126.41;;;-0.62;72.39
70921;BME280;58572;48.110;19.838;2023-02-12T05:41:13;99136.75;;;-0.44;73.31
70921;BME280;58572;48.110;19.838;2023-02-12T05:43:41;99148.44;;;-1.06;75.63
70921;BME280;58572;48.110;19.838;2023-02-12T05:46:08;99138.44;;;-0.14;69.89
70921;BME280;58572;48.110;19.838;2023-02-12T05:48:37;99151.34;;;-0.32;73.55
70921;BME280;58572;48.110;19.838;2023-02-12T05:51:06;99149.03;;;0.39;67.68
70921;BME280;58572;48.110;19.838;2023-02-12T05:53:34;99161.75;;;-0.75;73.39
70921;BME280;58572;48.110;19.838;2023-02-12T05:56:09;99143.13;;;-0.83;72.87
70921;BME280;58572;48.110;19.838;2023-02-12T05:58:38;99148.66;;;-0.03;68.07
70921;BME280;58572;48.110;19.838;2023-02-12T06:01:12;99181.25;;;0.16;67.32
70921;BME280;58572;48.110;19.838;2023-02-12T06:03:40;99187.03;;;-1.16;72.91
70921;BME280;58572;48.110;19.838;2023-02-12T06:06:07;99189.81;;;-0.41;70.89
70921;BME280;58572;48.110;19.838;2023-02-12T06:08:35;99199.78;;;-0.35;69.74
70921;BME280;58572;48.110;19.838;2023-02-12T06:11:04;99208.78;;;-0.74;70.50
70921;BME280;58572;48.110;19.838;2023-02-12T06:13:31;99205.19;;;-1.12;73.52
70921;BME280;58572;48.110;19.838;2023-02-12T06:16:00;99210.16;;;-0.78;71.21
70921;BME280;58572;48.110;19.838;2023-02-12T06:18:28;99225.75;;;-1.20;73.65
70921;BME280;58572;48.110;19.838;2023-02-12T06:20:56;99222.97;;;-0.96;73.21
70921;BME280;58572;48.110;19.838;2023-02-12T06:23:23;99206.94;;;-0.96;74.01
70921;BME280;58572;48.110;19.838;2023-02-12T06:25:55;99221.22;;;-0.06;70.88
70921;BME280;58572;48.110;19.838;2023-02-12T06:28:22;99224.47;;;-0.33;68.84
70921;BME280;58572;48.110;19.838;2023-02-12T06:30:49;99238.44;;;-1.22;76.71
70921;BME280;58572;48.110;19.838;2023-02-12T06:33:18;99234.75;;;-0.45;72.88
70921;BME280;58572;48.110;19.838;2023-02-12T06:35:45;99246.47;;;-0.46;75.45
70921;BME280;58572;48.110;19.838;2023-02-12T06:38:12;99250.53;;;-0.35;71.52
70921;BME280;58572;48.110;19.838;2023-02-12T06:40:39;99257.16;;;-0.46;71.45
70921;BME280;58572;48.110;19.838;2023-02-12T06:43:07;99262.25;;;0.02;72.28
70921;BME280;58572;48.110;19.838;2023-02-12T06:45:36;99262.31;;;-0.07;68.77
70921;BME280;58572;48.110;19.838;2023-02-12T06:48:03;99280.94;;;0.39;66.76
70921;BME280;58572;48.110;19.838;2023-02-12T06:50:32;99273.38;;;0.57;68.02
70921;BME280;58572;48.110;19.838;2023-02-12T06:52:59;99278.63;;;-0.85;74.98
70921;BME280;58572;48.110;19.838;2023-02-12T06:55:26;99290.03;;;-0.45;74.72
70921;BME280;58572;48.110;19.838;2023-02-12T06:57:54;99289.59;;;0.26;67.90
70921;BME280;58572;48.110;19.838;2023-02-12T07:00:21;99293.38;;;0.32;68.30
70921;BME280;58572;48.110;19.838;2023-02-12T07:02:52;99305.31;;;0.07;66.88
70921;BME280;58572;48.110;19.838;2023-02-12T07:05:20;99278.91;;;-1.50;75.55
70921;BME280;58572;48.110;19.838;2023-02-12T07:07:49;99311.25;;;-0.75;76.39
70921;BME280;58572;48.110;19.838;2023-02-12T07:10:16;99216.22;;;-0.84;73.80
70921;BME280;58572;48.110;19.838;2023-02-12T07:12:44;99315.72;;;-1.06;77.01
70921;BME280;58572;48.110;19.838;2023-02-12T07:15:11;99309.97;;;-0.56;77.84
70921;BME280;58572;48.110;19.838;2023-02-12T07:17:39;99311.72;;;-0.71;78.23
70921;BME280;58572;48.110;19.838;2023-02-12T07:20:07;99314.19;;;-0.16;76.45
70921;BME280;58572;48.110;19.838;2023-02-12T07:22:35;99309.47;;;-0.14;75.09
70921;BME280;58572;48.110;19.838;2023-02-12T07:25:04;99313.78;;;-0.27;77.28
70921;BME280;58572;48.110;19.838;2023-02-12T07:27:33;99136.22;;;-1.46;77.50
70921;BME280;58572;48.110;19.838;2023-02-12T07:30:02;99309.59;;;0.16;77.44
70921;BME280;58572;48.110;19.838;2023-02-12T07:32:31;99308.31;;;0.41;76.47
70921;BME280;58572;48.110;19.838;2023-02-12T07:34:58;99304.97;;;0.10;76.08
70921;BME280;58572;48.110;19.838;2023-02-12T07:37:25;99299.69;;;0.02;77.02
70921;BME280;58572;48.110;19.838;2023-02-12T07:39:52;99298.88;;;0.16;77.64
70921;BME280;58572;48.110;19.838;2023-02-12T07:42:21;99301.50;;;0.53;76.37
70921;BME280;58572;48.110;19.838;2023-02-12T07:44:48;99313.31;;;0.44;76.45
70921;BME280;58572;48.110;19.838;2023-02-12T07:47:15;99314.78;;;0.61;75.61
70921;BME280;58572;48.110;19.838;2023-02-12T07:49:42;99314.59;;;0.78;75.10
70921;BME280;58572;48.110;19.838;2023-02-12T07:52:09;99320.50;;;0.58;77.08
70921;BME280;58572;48.110;19.838;2023-02-12T07:54:36;99293.56;;;0.60;75.91
70921;BME280;58572;48.110;19.838;2023-02-12T07:57:03;99330.47;;;0.50;77.70
70921;BME280;58572;48.110;19.838;2023-02-12T07:59:32;99335.81;;;0.64;76.53
70921;BME280;58572;48.110;19.838;2023-02-12T08:01:59;99337.59;;;0.57;77.33
70921;BME280;58572;48.110;19.838;2023-02-12T08:04:26;99343.56;;;0.89;76.95
70921;BME280;58572;48.110;19.838;2023-02-12T08:06:54;99351.38;;;0.31;78.03
70921;BME280;58572;48.110;19.838;2023-02-12T08:09:24;99340.16;;;0.80;78.00
70921;BME280;58572;48.110;19.838;2023-02-12T08:11:52;99342.03;;;1.09;77.43
70921;BME280;58572;48.110;19.838;2023-02-12T08:14:20;99349.09;;;1.02;76.70
70921;BME280;58572;48.110;19.838;2023-02-12T08:16:49;99363.06;;;0.83;77.06
70921;BME280;58572;48.110;19.838;2023-02-12T08:19:17;99360.44;;;1.34;77.55
70921;BME280;58572;48.110;19.838;2023-02-12T08:21:45;99363.66;;;1.44;77.36
70921;BME280;58572;48.110;19.838;2023-02-12T08:24:14;99355.75;;;0.91;77.42
70921;BME280;58572;48.110;19.838;2023-02-12T08:26:41;99356.69;;;1.13;78.41
70921;BME280;58572;48.110;19.838;2023-02-12T08:29:10;99359.44;;;1.35;76.95
70921;BME280;58572;48.110;19.838;2023-02-12T08:31:39;99370.41;;;1.40;76.99
70921;BME280;58572;48.110;19.838;2023-02-12T08:34:15;99366.38;;;1.65;77.15
70921;BME280;58572;48.110;19.838;2023-02-12T08:36:43;99377.59;;;1.54;76.70
70921;BME280;58572;48.110;19.838;2023-02-12T08:39:11;99375.25;;;1.66;77.28
70921;BME280;58572;48.110;19.838;2023-02-12T08:41:38;99377.81;;;1.74;77.17
70921;BME280;58572;48.110;19.838;2023-02-12T08:44:07;99377.44;;;1.98;76.63
70921;BME280;58572;48.110;19.838;2023-02-12T08:46:35;99375.97;;;1.96;76.06
70921;BME280;58572;48.110;19.838;2023-02-12T08:49:04;99372.91;;;2.41;75.96
70921;BME280;58572;48.110;19.838;2023-02-12T08:51:37;99381.59;;;2.43;75.29
70921;BME280;58572;48.110;19.838;2023-02-12T08:54:06;99370.16;;;2.63;75.91
70921;BME280;58572;48.110;19.838;2023-02-12T08:56:34;99377.38;;;3.79;72.32
70921;BME280;58572;48.110;19.838;2023-02-12T08:59:02;99375.47;;;3.66;73.13
70921;BME280;58572;48.110;19.838;2023-02-12T09:01:31;99369.19;;;4.46;71.90
70921;BME280;58572;48.110;19.838;2023-02-12T09:03:59;99378.47;;;4.11;73.38
70921;BME280;58572;48.110;19.838;2023-02-12T09:06:27;99364.50;;;8.23;61.83
70921;BME280;58572;48.110;19.838;2023-02-12T09:08:56;99374.75;;;7.61;60.59
70921;BME280;58572;48.110;19.838;2023-02-12T09:11:25;99380.44;;;5.86;66.75
70921;BME280;58572;48.110;19.838;2023-02-12T09:13:56;99371.88;;;7.20;60.70
70921;BME280;58572;48.110;19.838;2023-02-12T09:16:25;99400.06;;;4.51;69.21
70921;BME280;58572;48.110;19.838;2023-02-12T09:18:52;99391.00;;;5.42;66.63
70921;BME280;58572;48.110;19.838;2023-02-12T09:21:20;99392.72;;;5.24;67.93
70921;BME280;58572;48.110;19.838;2023-02-12T09:23:47;99397.28;;;5.30;67.89
70921;BME280;58572;48.110;19.838;2023-02-12T09:26:17;99259.84;;;5.03;66.13
70921;BME280;58572;48.110;19.838;2023-02-12T09:28:48;99392.28;;;7.89;61.07
70921;BME280;58572;48.110;19.838;2023-02-12T09:31:17;99399.69;;;7.27;61.42
70921;BME280;58572;48.110;19.838;2023-02-12T09:33:45;99403.06;;;6.79;63.60
70921;BME280;58572;48.110;19.838;2023-02-12T09:36:13;99414.88;;;5.97;65.36
70921;BME280;58572;48.110;19.838;2023-02-12T09:38:42;99405.59;;;7.90;60.04
70921;BME280;58572;48.110;19.838;2023-02-12T09:41:33;99364.69;;;10.93;53.33
70921;BME280;58572;48.110;19.838;2023-02-12T09:44:05;99406.50;;;8.98;55.44
70921;BME280;58572;48.110;19.838;2023-02-12T09:46:37;99409.19;;;7.36;60.68
70921;BME280;58572;48.110;19.838;2023-02-12T09:49:10;99396.59;;;9.38;54.14
70921;BME280;58572;48.110;19.838;2023-02-12T09:51:43;99352.66;;;10.88;49.38
70921;BME280;58572;48.110;19.838;2023-02-12T09:54:14;99395.66;;;11.25;49.58
70921;BME280;58572;48.110;19.838;2023-02-12T09:56:46;99416.28;;;8.87;54.94
70921;BME280;58572;48.110;19.838;2023-02-12T09:59:22;99399.91;;;10.66;52.12
70921;BME280;58572;48.110;19.838;2023-02-12T10:01:54;99415.38;;;9.80;53.60
70921;BME280;58572;48.110;19.838;2023-02-12T10:04:23;99275.00;;;10.42;46.81
70921;BME280;58572;48.110;19.838;2023-02-12T10:07:01;99414.44;;;12.04;50.29
70921;BME280;58572;48.110;19.838;2023-02-12T10:09:45;99368.50;;;9.33;52.93
70921;BME280;58572;48.110;19.838;2023-02-12T10:12:21;99426.63;;;10.69;49.96
70921;BME280;58572;48.110;19.838;2023-02-12T10:15:19;99432.19;;;10.45;48.29
70921;BME280;58572;48.110;19.838;2023-02-12T10:17:57;99434.50;;;10.25;50.48
70921;BME280;58572;48.110;19.838;2023-02-12T10:20:54;99441.75;;;8.86;51.61
70921;BME280;58572;48.110;19.838;2023-02-12T10:23:43;99450.84;;;9.62;53.91
70921;BME280;58572;48.110;19.838;2023-02-12T10:26:17;99449.72;;;8.57;54.23
70921;BME280;58572;48.110;19.838;2023-02-12T10:28:48;99429.75;;;13.65;45.26
70921;BME280;58572;48.110;19.838;2023-02-12T10:31:20;99445.31;;;13.22;43.11
70921;BME280;58572;48.110;19.838;2023-02-12T10:33:50;99449.66;;;13.55;45.16
70921;BME280;58572;48.110;19.838;2023-02-12T10:36:30;99453.25;;;12.92;46.55
70921;BME280;58572;48.110;19.838;2023-02-12T10:39:00;99455.06;;;10.95;48.54
70921;BME280;58572;48.110;19.838;2023-02-12T10:41:29;99448.09;;;10.13;51.05
70921;BME280;58572;48.110;19.838;2023-02-12T10:43:59;99445.16;;;13.39;43.08
70921;BME280;58572;48.110;19.838;2023-02-12T10:46:29;99458.31;;;9.43;51.94
70921;BME280;58572;48.110;19.838;2023-02-12T10:48:58;99455.81;;;10.73;50.34
70921;BME280;58572;48.110;19.838;2023-02-12T10:51:42;99455.03;;;8.64;51.31
70921;BME280;58572;48.110;19.838;2023-02-12T10:54:35;99470.47;;;6.74;58.47
70921;BME280;58572;48.110;19.838;2023-02-12T10:57:16;99472.31;;;6.80;59.36
70921;BME280;58572;48.110;19.838;2023-02-12T10:59:48;99460.69;;;7.66;58.35
70921;BME280;58572;48.110;19.838;2023-02-12T11:02:21;99111.72;;;6.69;54.11
70921;BME280;58572;48.110;19.838;2023-02-12T11:04:49;99444.13;;;12.49;48.08
70921;BME280;58572;48.110;19.838;2023-02-12T11:07:17;99432.97;;;14.19;41.75
70921;BME280;58572;48.110;19.838;2023-02-12T11:09:45;99449.13;;;12.89;45.31
70921;BME280;58572;48.110;19.838;2023-02-12T11:12:32;99458.78;;;10.03;51.27
70921;BME280;58572;48.110;19.838;2023-02-12T11:15:04;99384.84;;;14.23;42.56
70921;BME280;58572;48.110;19.838;2023-02-12T11:17:35;99435.50;;;11.70;46.12
70921;BME280;58572;48.110;19.838;2023-02-12T11:20:19;99450.09;;;10.58;48.27
70921;BME280;58572;48.110;19.838;2023-02-12T11:22:52;99455.72;;;9.48;55.28
70921;BME280;58572;48.110;19.838;2023-02-12T11:25:22;99431.78;;;14.88;42.21
70921;BME280;58572;48.110;19.838;2023-02-12T11:28:15;99449.75;;;10.14;50.21
70921;BME280;58572;48.110;19.838;2023-02-12T11:30:52;99450.97;;;9.32;53.09
70921;BME280;58572;48.110;19.838;2023-02-12T11:33:26;99444.38;;;11.43;46.88
70921;BME280;58572;48.110;19.838;2023-02-12T11:35:55;99432.84;;;13.84;42.61
70921;BME280;58572;48.110;19.838;2023-02-12T11:38:27;99425.16;;;16.29;35.80
70921;BME280;58572;48.110;19.838;2023-02-12T11:40:58;99445.31;;;13.22;47.10
70921;BME280;58572;48.110;19.838;2023-02-12T11:43:27;99443.78;;;13.36;46.05
70921;BME280;58572;48.110;19.838;2023-02-12T11:45:58;99436.50;;;14.10;42.79
70921;BME280;58572;48.110;19.838;2023-02-12T11:48:29;99450.56;;;11.94;45.85
70921;BME280;58572;48.110;19.838;2023-02-12T11:50:59;99434.28;;;14.01;44.50
70921;BME280;58572;48.110;19.838;2023-02-12T11:53:30;99441.88;;;10.86;46.35
70921;BME280;58572;48.110;19.838;2023-02-12T11:56:00;99455.81;;;10.05;48.28
70921;BME280;58572;48.110;19.838;2023-02-12T11:58:28;99451.91;;;10.52;49.97
70921;BME280;58572;48.110;19.838;2023-02-12T12:01:02;99466.53;;;7.81;55.65
70921;BME280;58572;48.110;19.838;2023-02-12T12:03:36;99465.25;;;8.32;54.63
70921;BME280;58572;48.110;19.838;2023-02-12T12:06:13;99189.84;;;7.38;51.84
70921;BME280;58572;48.110;19.838;2023-02-12T12:08:47;99455.75;;;9.88;53.10
70921;BME280;58572;48.110;19.838;2023-02-12T12:11:19;99465.03;;;9.40;53.26
70921;BME280;58572;48.110;19.838;2023-02-12T12:13:55;99468.88;;;8.86;54.14
70921;BME280;58572;48.110;19.838;2023-02-12T12:16:29;99473.97;;;7.49;56.75
70921;BME280;58572;48.110;19.838;2023-02-12T12:19:21;99467.56;;;7.98;56.96
70921;BME280;58572;48.110;19.838;2023-02-12T12:22:12;99465.75;;;6.38;61.49
70921;BME280;58572;48.110;19.838;2023-02-12T12:24:48;99468.44;;;6.69;60.92
70921;BME280;58572;48.110;19.838;2023-02-12T12:27:22;99483.38;;;5.96;63.07
70921;BME280;58572;48.110;19.838;2023-02-12T12:30:19;99443.91;;;7.57;60.61
70921;BME280;58572;48.110;19.838;2023-02-12T12:32:51;99463.03;;;6.94;59.25
70921;BME280;58572;48.110;19.838;2023-02-12T12:35:28;99451.09;;;6.52;61.02
70921;BME280;58572;48.110;19.838;2023-02-12T12:38:01;99453.38;;;6.80;59.95
70921;BME280;58572;48.110;19.838;2023-02-12T12:40:44;99459.16;;;7.33;57.52
70921;BME280;58572;48.110;19.838;2023-02-12T12:43:23;99449.50;;;8.59;57.08
70921;BME280;58572;48.110;19.838;2023-02-12T12:46:27;99461.13;;;6.07;62.60
70921;BME280;58572;48.110;19.838;2023-02-12T12:49:08;99469.81;;;5.51;64.53
70921;BME280;58572;48.110;19.838;2023-02-12T12:52:02;99457.38;;;5.43;65.17
70921;BME280;58572;48.110;19.838;2023-02-12T12:54:43;99396.50;;;4.96;64.88
70921;BME280;58572;48.110;19.838;2023-02-12T12:57:22;99431.13;;;4.93;66.13
70921;BME280;58572;48.110;19.838;2023-02-12T13:00:01;99461.94;;;5.50;64.76
70921;BME280;58572;48.110;19.838;2023-02-12T13:02:49;99394.47;;;4.45;67.05
70921;BME280;58572;48.110;19.838;2023-02-12T13:08:33;99459.09;;;5.11;66.61
70921;BME280;58572;48.110;19.838;2023-02-12T13:11:14;99436.72;;;4.65;67.32
70921;BME280;58572;48.110;19.838;2023-02-12T13:13:48;99463.25;;;4.81;67.73
70921;BME280;58572;48.110;19.838;2023-02-12T13:16:20;99462.84;;;4.64;68.40
70921;BME280;58572;48.110;19.838;2023-02-12T13:18:55;99472.78;;;4.84;68.00
70921;BME280;58572;48.110;19.838;2023-02-12T13:21:35;99428.00;;;4.23;68.95
70921;BME280;58572;48.110;19.838;2023-02-12T13:24:16;99478.16;;;4.64;68.69